Aérodrome :
LOGIN :

S'inscrire | Disclaimer

   EN    FR    IT 

 










Légende :    VFR   VFR Marginal   IFR   IFR Intensif   IFR Très Intensif
Visi : 
Plafond : 
>= 8 km
>= 3000ft
5 à 8 km
1000 à 3000 ft
1500m à 5 km
500 à 1000 ft
800 à 1500m
200 à 500 ft
< 800m
< 200 ft
Symboles :   Orages  Brouillard  Fortes neiges  Fortes précipitations  Vent > 20 kt
SIGMETs :   Divers  Orages  Givrage  Turbulence  Onde Orograph.  Cendres Volcan.






- Altitude de l'aérodrome : 3360 ft
- Code IATA : QSF


DAAS - 8 Mai 45

DERNIER METAR :
  • 050700Z 30013KT 9999 SCT026 15/12 Q1013

METARs EXPIRÉS :
  • 050600Z 30012KT 9999 SCT026 14/11 Q1013
  • 050500Z 33003KT 290V010 9999 SCT030 13/11 Q1013

TAF TAF DAAS
Valide du 05 à 06h jusqu'au 06 à 06h UTC


050500Z 0506/0606 26008KT 9999 SCT026
TEMPO 0506/0509 30014KT 4000 -TSRA FEW023CB BKN030
BECMG 0507/0509 34016KT
BECMG 0518/0520 22006KT



MET'MAP, la Météo Aéronautique d'un coup d'oeil ! - Copyright ORBIFLY Décembre 2007 - Disclaimer

ORBIFLY MET'MAP TEAM :

Programmation & Développement : Alexandra Zaïnal
Sur une idée originale de : Baudouin d'Aumeries
Assistance à la programmation : Marc-Olivier Méhu
Soutien technique & logistique : Manuel Goepfert

Contact : metmap@orbifly.com




SOURCES & CREDITS :

   NOAA